Forside
METAR-TAF:

METAR-TAF

Lufthavne :

Jönköping Airport

Jönköping, Sverige

Breddekreds: 57-46N, længdekreds: 014-05E, højde: 226 m

Aktuelle vejr

Denne rapport blev lavet for 27 minutter siden, kl. 23:50 UTC
Vind 3 kt fra vest
Temperatur -1°C
Fugtighed 100%
Tryk 1024 hPa
Sigt: 2200 m
dis

METAR: ESGJ 222350Z AUTO 26003KT 2200 BR OVC002/// M01/M01 Q1024

Tid: 01:17 (00:17 UTC)


TAF: fraværende

Vejrobservationer og prognoser fra mere end 4000 lufthavne (METAR og TAF).

De gule og røde prikker repræsenterer de meteorologiske stationer.

Flyt musen over at se navnet på stationen.

Så klik over at se vejr observationer og prognoser.

At skifte det kort: Klik på de grønne knapper med et sort kors for at zoome ind; på den grønne knap med en bindestreg for at zoome ud; eller på de grønne pile for tilstødende kort.


METAR-TAF: